createdAt,value
2019-06-15T07:34:29.370Z,99199.33
2019-06-15T07:52:05.227Z,99217.08
2019-06-15T07:54:36.166Z,99215.22
2019-06-15T07:57:03.861Z,99217.39
2019-06-15T07:59:45.586Z,99220.84
2019-06-15T08:02:14.080Z,99229.43
2019-06-15T08:04:42.473Z,99234.80
2019-06-15T08:07:10.914Z,99240.98
2019-06-15T08:09:39.307Z,99250.00
2019-06-15T08:12:07.697Z,99249.73
2019-06-15T08:14:36.090Z,99249.41
2019-06-15T08:17:04.550Z,99257.70
2019-06-15T08:19:33.012Z,99251.25
2019-06-15T08:22:01.433Z,99242.83
2019-06-15T08:24:29.833Z,99245.50
2019-06-15T08:26:58.352Z,99255.61
2019-06-15T08:29:26.738Z,99257.61
2019-06-15T08:31:55.597Z,99267.09
2019-06-15T08:34:23.947Z,99265.98
2019-06-15T08:36:52.366Z,99276.58
2019-06-15T08:39:20.810Z,99276.30
2019-06-15T08:41:49.204Z,99273.11
2019-06-15T08:44:17.631Z,99274.88
2019-06-15T08:46:46.031Z,99279.56
2019-06-15T08:49:14.431Z,99280.94
2019-06-15T08:51:42.822Z,99273.08
2019-06-15T08:54:11.217Z,99290.56
2019-06-15T08:56:39.638Z,99290.98
2019-06-15T08:59:08.029Z,99285.69
2019-06-15T09:01:36.423Z,99287.41
2019-06-15T09:04:04.908Z,99286.73
2019-06-15T09:06:33.303Z,99289.14
2019-06-15T09:09:01.721Z,99292.34
2019-06-15T09:11:30.212Z,99296.19
2019-06-15T09:13:58.578Z,99300.01
2019-06-15T09:16:26.973Z,99303.49
2019-06-15T09:18:57.531Z,99305.23
2019-06-15T09:21:25.843Z,99298.64
2019-06-15T09:23:54.259Z,99309.11
2019-06-15T09:26:22.683Z,99302.48
2019-06-15T09:28:51.084Z,99309.38
2019-06-15T09:31:19.757Z,99317.92
2019-06-15T09:33:48.382Z,99320.45
2019-06-15T09:36:17.155Z,99314.48
2019-06-15T09:38:47.037Z,99317.09
2019-06-15T09:41:21.498Z,99315.09
2019-06-15T09:43:50.502Z,99314.22
2019-06-15T09:46:19.289Z,99326.22
2019-06-15T09:48:53.333Z,99324.84
2019-06-15T09:51:21.956Z,99327.54
2019-06-15T09:53:50.887Z,99327.84
2019-06-15T09:56:19.337Z,99328.76
2019-06-15T09:58:47.815Z,99328.35
2019-06-15T10:01:16.248Z,99336.08
2019-06-15T10:03:44.649Z,99331.81
2019-06-15T10:06:13.125Z,99329.23
2019-06-15T10:08:41.799Z,99329.70
2019-06-15T10:11:10.190Z,99335.94
2019-06-15T10:13:38.583Z,99335.31
2019-06-15T10:16:07.078Z,99338.47
2019-06-15T10:18:38.638Z,99336.03
2019-06-15T10:21:05.861Z,99338.19
2019-06-15T10:23:34.553Z,99342.69
2019-06-15T10:26:03.040Z,99333.88
2019-06-15T10:28:31.437Z,99335.00
2019-06-15T10:31:01.023Z,99333.32
2019-06-15T10:33:29.366Z,99338.23
2019-06-15T10:35:57.752Z,99341.66
2019-06-15T10:38:26.155Z,99336.43
2019-06-15T10:40:54.548Z,99342.05
2019-06-15T10:43:23.052Z,99341.77
2019-06-15T10:45:51.453Z,99344.28
2019-06-15T10:48:19.927Z,99344.56
2019-06-15T10:50:48.430Z,99351.94
2019-06-15T10:53:16.801Z,99346.63
2019-06-15T10:55:45.201Z,99343.64
2019-06-15T10:58:13.603Z,99348.86
2019-06-15T11:00:43.196Z,99349.05
2019-06-15T11:03:11.583Z,99353.13
2019-06-15T11:05:39.979Z,99355.65
2019-06-15T11:08:08.372Z,99357.41
2019-06-15T11:10:57.771Z,99355.09
2019-06-15T11:13:26.339Z,99353.48
2019-06-15T11:15:54.810Z,99360.09
2019-06-15T11:18:23.205Z,99361.16
2019-06-15T11:20:51.605Z,99364.06
2019-06-15T11:23:20.037Z,99362.38
2019-06-15T11:25:48.428Z,99348.49
2019-06-15T11:28:16.819Z,99364.31
2019-06-15T11:30:45.231Z,99372.97
2019-06-15T11:33:13.640Z,99372.37
2019-06-15T11:35:42.965Z,99377.98
2019-06-15T11:38:11.367Z,99381.63
2019-06-15T11:40:39.766Z,99382.52
2019-06-15T11:43:08.150Z,99382.52
2019-06-15T11:45:36.583Z,99384.52
2019-06-15T11:48:05.054Z,99384.52
2019-06-15T11:50:33.975Z,99384.13
2019-06-15T11:53:02.367Z,99393.59
2019-06-15T11:55:39.129Z,99393.89
2019-06-15T11:58:00.887Z,99402.28
2019-06-15T12:00:32.340Z,99395.92
2019-06-15T12:03:00.778Z,99396.58
2019-06-15T12:05:29.167Z,99398.70
2019-06-15T12:07:57.554Z,99393.62
2019-06-15T12:10:25.975Z,99397.26
2019-06-15T12:12:54.377Z,99396.61
2019-06-15T12:15:22.791Z,99396.61
2019-06-15T12:17:51.282Z,99382.97
2019-06-15T12:20:19.768Z,99382.97
2019-06-15T12:22:48.443Z,99387.33
2019-06-15T12:25:16.940Z,99388.46
2019-06-15T12:27:45.377Z,99390.43
2019-06-15T12:30:14.136Z,99389.75
2019-06-15T12:32:42.517Z,99387.44
2019-06-15T12:35:10.989Z,99393.59
2019-06-15T12:37:39.379Z,99391.89
2019-06-15T12:40:08.393Z,99381.06
2019-06-15T12:42:36.799Z,99381.06
2019-06-15T12:45:06.029Z,99382.42
2019-06-15T12:47:34.612Z,99382.42
2019-06-15T12:50:04.082Z,99379.16
2019-06-15T12:52:32.544Z,99383.95
2019-06-15T12:55:00.963Z,99386.47
2019-06-15T12:57:29.934Z,99385.89
2019-06-15T12:59:58.325Z,99377.87
2019-06-15T13:02:26.762Z,99375.61
2019-06-15T13:04:55.174Z,99383.07
2019-06-15T13:07:23.548Z,99381.15
2019-06-15T13:09:51.963Z,99378.02
2019-06-15T13:12:20.941Z,99383.57
2019-06-15T13:14:49.331Z,99381.35
2019-06-15T13:17:17.720Z,99376.89
2019-06-15T13:19:46.121Z,99376.08
2019-06-15T13:22:14.555Z,99373.53
2019-06-15T13:24:42.960Z,99371.89
2019-06-15T13:27:11.384Z,99371.05
2019-06-15T13:29:39.788Z,99371.95
2019-06-15T13:32:08.159Z,99369.30
2019-06-15T13:34:36.544Z,99373.55
2019-06-15T13:37:05.124Z,99363.20
2019-06-15T13:39:33.521Z,99363.16
2019-06-15T13:42:01.948Z,99366.03
2019-06-15T13:44:30.359Z,99373.84
2019-06-15T13:46:58.758Z,99375.78
2019-06-15T13:49:27.155Z,99374.67
2019-06-15T13:51:55.548Z,99381.19
2019-06-15T13:54:23.951Z,99382.66
2019-06-15T13:56:52.405Z,99384.00
2019-06-15T13:59:20.812Z,99383.27
2019-06-15T14:01:49.214Z,99374.64
2019-06-15T14:04:17.620Z,99376.59
2019-06-15T14:06:46.007Z,99375.27
2019-06-15T14:09:14.427Z,99367.25
2019-06-15T14:11:42.845Z,99375.87
2019-06-15T14:14:11.276Z,99380.97
2019-06-15T14:16:39.668Z,99389.06
2019-06-15T14:19:08.072Z,99393.88
2019-06-15T14:21:36.472Z,99398.34
2019-06-15T14:24:04.950Z,99392.19
2019-06-15T14:26:33.426Z,99388.84
2019-06-15T14:29:02.012Z,99391.99
2019-06-15T14:31:30.421Z,99392.59
2019-06-15T14:33:59.209Z,99389.45
2019-06-15T14:36:27.616Z,99385.83
2019-06-15T14:38:56.005Z,99396.56
2019-06-15T14:41:24.401Z,99390.42
2019-06-15T14:43:52.798Z,99396.30
2019-06-15T14:46:21.205Z,99393.34
2019-06-15T14:48:49.593Z,99388.88
2019-06-15T14:51:18.010Z,99397.80
2019-06-15T14:53:49.905Z,99392.02
2019-06-15T14:56:16.530Z,99397.30
2019-06-15T14:58:45.882Z,99397.16
2019-06-15T15:01:16.756Z,99397.27
2019-06-15T15:03:47.292Z,99396.47
2019-06-15T15:06:17.232Z,99397.17
2019-06-15T15:08:47.152Z,99399.53
2019-06-15T15:11:17.050Z,99402.22
2019-06-15T15:13:47.156Z,99410.14
2019-06-15T15:16:17.784Z,99411.02
2019-06-15T15:18:46.454Z,99410.19
2019-06-15T15:21:16.511Z,99406.34
2019-06-15T15:23:46.459Z,99402.97
2019-06-15T15:26:17.153Z,99399.14
2019-06-15T15:28:47.264Z,99403.01
2019-06-15T15:31:17.120Z,99397.16
2019-06-15T15:33:47.666Z,99400.88
2019-06-15T15:36:16.905Z,99399.27
2019-06-15T15:38:46.861Z,99401.11
2019-06-15T15:41:17.089Z,99396.06
2019-06-15T15:43:46.391Z,99404.05
2019-06-15T15:46:16.448Z,99402.12
2019-06-15T15:48:46.930Z,99399.53
2019-06-15T15:51:17.172Z,99394.03
2019-06-15T15:53:46.739Z,99390.00
2019-06-15T15:56:17.044Z,99393.17
2019-06-15T15:58:47.190Z,99395.02
2019-06-15T16:01:17.152Z,99389.00
2019-06-15T16:03:47.474Z,99394.39
2019-06-15T16:06:15.823Z,99394.98
2019-06-15T16:08:46.700Z,99384.47
2019-06-15T16:11:16.340Z,99384.73
2019-06-15T16:13:46.140Z,99384.40
2019-06-15T16:16:16.492Z,99381.40
2019-06-15T16:18:46.928Z,99381.02
2019-06-15T16:21:16.905Z,99384.97
2019-06-15T16:23:46.718Z,99381.97
2019-06-15T16:26:16.930Z,99385.84
2019-06-15T16:28:46.202Z,99380.94
2019-06-15T16:31:17.769Z,99376.67
2019-06-15T16:33:46.531Z,99379.02
2019-06-15T16:36:15.172Z,99376.02
2019-06-15T16:38:43.862Z,99377.28
2019-06-15T16:41:12.248Z,99369.61
2019-06-15T16:43:40.636Z,99368.45
2019-06-15T16:46:09.033Z,99361.42
2019-06-15T16:48:37.453Z,99366.23
2019-06-15T16:51:06.706Z,99370.19
2019-06-15T16:53:37.257Z,99360.39
2019-06-15T16:56:06.145Z,99369.61
2019-06-15T16:58:36.391Z,99366.15
2019-06-15T17:01:06.519Z,99363.30
2019-06-15T17:03:36.672Z,99370.64
2019-06-15T17:07:36.763Z,99371.60
2019-06-15T17:10:06.763Z,99368.84
2019-06-15T17:12:37.187Z,99362.05
2019-06-15T17:15:08.427Z,99369.07
2019-06-15T17:17:37.025Z,99368.61
2019-06-15T17:20:08.425Z,99368.22
2019-06-15T17:22:37.854Z,99370.98
2019-06-15T17:25:08.630Z,99377.37
2019-06-15T17:27:37.634Z,99373.52
2019-06-15T17:30:07.241Z,99380.01
2019-06-15T17:32:40.211Z,99376.98
2019-06-15T17:35:08.683Z,99387.14
2019-06-15T17:37:37.082Z,99386.36
2019-06-15T17:40:09.427Z,99390.69
2019-06-15T17:42:37.851Z,99395.12
2019-06-15T17:45:06.960Z,99389.11
2019-06-15T17:47:35.343Z,99397.56
2019-06-15T17:50:07.504Z,99399.03
2019-06-15T17:52:36.051Z,99395.56
2019-06-15T17:55:07.328Z,99402.11
2019-06-15T17:57:36.188Z,99407.48
2019-06-15T18:00:07.633Z,99409.21
2019-06-15T18:02:38.311Z,99410.16
2019-06-15T18:05:07.237Z,99409.60
2019-06-15T18:07:36.093Z,99396.17
2019-06-15T18:10:07.450Z,99400.34
2019-06-15T18:12:35.848Z,99397.41
2019-06-15T18:15:07.360Z,99392.86
2019-06-15T18:17:36.991Z,99397.84
2019-06-15T18:20:06.799Z,99409.25
2019-06-15T18:22:36.253Z,99414.69
2019-06-15T18:25:06.512Z,99416.06
2019-06-15T18:27:37.273Z,99419.16
2019-06-15T18:30:08.791Z,99410.05
2019-06-15T18:32:38.065Z,99412.80
2019-06-15T18:35:07.423Z,99409.78
2019-06-15T18:37:37.187Z,99412.54
2019-06-15T18:40:07.994Z,99409.86
2019-06-15T18:42:37.021Z,99411.01
2019-06-15T18:45:07.234Z,99411.83
2019-06-15T18:47:36.380Z,99402.08
2019-06-15T18:50:09.296Z,99400.28
2019-06-15T18:52:37.998Z,99412.48
2019-06-15T18:55:07.820Z,99415.80
2019-06-15T18:57:37.234Z,99424.99
2019-06-15T19:00:07.716Z,99435.47
2019-06-15T19:02:36.375Z,99436.81
2019-06-15T19:05:09.124Z,99433.73
2019-06-15T19:07:37.915Z,99439.25
2019-06-15T19:10:07.330Z,99433.62
2019-06-15T19:12:35.756Z,99439.08
2019-06-15T19:15:07.269Z,99439.60
2019-06-15T19:17:37.024Z,99437.87
2019-06-15T19:20:07.350Z,99429.04
2019-06-15T19:22:35.757Z,99436.32
2019-06-15T19:25:05.480Z,99438.67
2019-06-15T19:27:36.427Z,99435.84
2019-06-15T19:30:08.171Z,99446.48
2019-06-15T19:32:36.942Z,99452.63
2019-06-15T19:35:07.615Z,99465.87
2019-06-15T19:37:37.017Z,99468.42
2019-06-15T19:40:07.414Z,99465.86
2019-06-15T19:42:36.972Z,99474.63
2019-06-15T19:45:10.368Z,99474.86
2019-06-15T19:47:38.053Z,99477.70
2019-06-15T19:50:09.969Z,99479.11
2019-06-15T19:52:38.043Z,99480.77
2019-06-15T19:55:07.276Z,99485.06
2019-06-15T19:57:36.197Z,99487.08
2019-06-15T20:00:07.444Z,99486.95
2019-06-15T20:02:36.475Z,99485.09
2019-06-15T20:05:10.250Z,99490.76
2019-06-15T20:07:38.756Z,99495.82
2019-06-15T20:10:10.685Z,99501.92
2019-06-15T20:12:39.085Z,99495.61
2019-06-15T20:15:08.015Z,99499.38
2019-06-15T20:17:36.891Z,99500.95
2019-06-15T20:20:07.242Z,99506.61
2019-06-15T20:22:37.246Z,99507.09
2019-06-15T20:25:07.832Z,99513.67
2019-06-15T20:27:37.640Z,99511.34
2019-06-15T20:30:08.794Z,99515.77
2019-06-15T20:32:37.457Z,99532.65
2019-06-15T20:35:17.730Z,99529.05
2019-06-15T20:37:40.223Z,99528.99
2019-06-15T20:40:09.303Z,99530.72
2019-06-15T20:42:38.085Z,99535.23
2019-06-15T20:45:10.592Z,99533.07
2019-06-15T20:47:39.081Z,99526.28
2019-06-15T20:50:21.955Z,99530.16
2019-06-15T20:52:39.516Z,99533.10
2019-06-15T20:55:08.336Z,99530.66
2019-06-15T20:57:37.247Z,99532.52
2019-06-15T21:00:10.675Z,99535.34
2019-06-15T21:02:39.259Z,99540.41
2019-06-15T21:05:08.684Z,99554.73
2019-06-15T21:07:37.092Z,99553.08
2019-06-15T21:10:07.307Z,99560.77
2019-06-15T21:12:37.561Z,99559.95
2019-06-15T21:15:08.873Z,99562.62
2019-06-15T21:17:37.506Z,99566.20
2019-06-15T21:20:10.541Z,99566.63
2019-06-15T21:22:39.176Z,99572.17
2019-06-15T21:25:09.511Z,99568.55
2019-06-15T21:27:37.982Z,99573.09
2019-06-15T21:30:11.146Z,99578.47
2019-06-15T21:32:39.540Z,99580.28
2019-06-15T21:35:08.777Z,99585.61
2019-06-15T21:37:37.301Z,99587.39
2019-06-15T21:40:08.022Z,99591.72
2019-06-15T21:42:36.512Z,99598.90
2019-06-15T21:45:08.389Z,99605.27
2019-06-15T21:47:37.247Z,99607.17
2019-06-15T21:50:07.402Z,99616.12
2019-06-15T21:52:36.422Z,99622.79
2019-06-15T21:55:07.146Z,99628.45
2019-06-15T21:57:36.513Z,99629.25
2019-06-15T22:00:17.416Z,99631.88
2019-06-15T22:02:47.070Z,99630.27
2019-06-15T22:05:16.590Z,99636.59
2019-06-15T22:07:47.451Z,99638.91
2019-06-15T22:10:16.044Z,99650.90
2019-06-15T22:12:44.415Z,99658.55
2019-06-15T22:15:13.049Z,99657.44
2019-06-15T22:17:42.399Z,99662.08
2019-06-15T22:20:12.041Z,99668.44
2019-06-15T22:22:40.427Z,99666.81
2019-06-15T22:25:09.270Z,99679.42
2019-06-15T22:27:37.655Z,99680.52
2019-06-15T22:30:09.179Z,99686.96
2019-06-15T22:32:37.577Z,99683.50
2019-06-15T22:35:07.517Z,99681.28
2019-06-15T22:37:36.186Z,99685.74
2019-06-15T22:40:08.296Z,99680.98
2019-06-15T22:42:36.780Z,99690.81
2019-06-15T22:45:07.954Z,99695.38
2019-06-15T22:47:36.989Z,99692.05
2019-06-15T22:50:07.844Z,99686.05
2019-06-15T22:52:36.736Z,99691.13
2019-06-15T22:55:08.878Z,99701.44
2019-06-15T22:57:37.341Z,99703.23
2019-06-15T23:00:08.023Z,99701.98
2019-06-15T23:02:36.798Z,99710.44
2019-06-15T23:05:06.486Z,99711.37
2019-06-15T23:07:36.443Z,99709.23
2019-06-15T23:10:06.966Z,99709.30
2019-06-15T23:12:37.115Z,99707.60
2019-06-15T23:15:07.455Z,99712.92
2019-06-15T23:17:37.245Z,99718.25
2019-06-15T23:20:09.443Z,99718.23
2019-06-15T23:22:37.859Z,99718.67
2019-06-15T23:25:08.727Z,99720.02
2019-06-15T23:27:37.119Z,99721.09
2019-06-15T23:30:09.669Z,99726.09
2019-06-15T23:32:38.136Z,99721.33
2019-06-15T23:35:10.285Z,99716.96
2019-06-15T23:37:38.658Z,99715.29
2019-06-15T23:40:19.945Z,99724.19
2019-06-15T23:42:49.583Z,99722.88
2019-06-15T23:45:19.512Z,99721.56
2019-06-15T23:47:48.179Z,99718.02
2019-06-15T23:50:18.825Z,99718.87
2019-06-15T23:52:48.257Z,99717.39
2019-06-15T23:55:18.020Z,99718.18
2019-06-15T23:57:46.691Z,99722.58
